sensor_id;sensor_type;location;lat;lon;timestamp;pressure;altitude;pressure_sealevel;temperature;humidity
16821;BME280;8527;49.740;6.604;2023-05-13T00:00:47;99931.94;;;12.97;96.29
16821;BME280;8527;49.740;6.604;2023-05-13T00:05:46;99935.81;;;12.86;95.80
16821;BME280;8527;49.740;6.604;2023-05-13T00:10:44;99932.69;;;12.82;95.89
16821;BME280;8527;49.740;6.604;2023-05-13T00:15:45;99935.06;;;12.77;95.40
16821;BME280;8527;49.740;6.604;2023-05-13T00:20:47;99924.03;;;12.65;95.70
16821;BME280;8527;49.740;6.604;2023-05-13T00:25:46;99933.53;;;12.59;96.27
16821;BME280;8527;49.740;6.604;2023-05-13T00:30:47;99941.09;;;12.47;97.51
16821;BME280;8527;49.740;6.604;2023-05-13T00:35:45;99943.50;;;12.34;95.76
16821;BME280;8527;49.740;6.604;2023-05-13T00:40:43;99937.25;;;12.27;96.82
16821;BME280;8527;49.740;6.604;2023-05-13T00:45:42;99932.56;;;12.29;97.14
16821;BME280;8527;49.740;6.604;2023-05-13T00:50:43;99934.91;;;12.23;94.89
16821;BME280;8527;49.740;6.604;2023-05-13T00:55:44;99939.63;;;12.13;94.47
16821;BME280;8527;49.740;6.604;2023-05-13T01:00:47;99941.97;;;12.08;96.19
16821;BME280;8527;49.740;6.604;2023-05-13T01:05:57;99950.78;;;12.00;96.02
16821;BME280;8527;49.740;6.604;2023-05-13T01:11:05;99958.16;;;11.81;95.15
16821;BME280;8527;49.740;6.604;2023-05-13T01:16:17;99947.38;;;11.75;96.10
16821;BME280;8527;49.740;6.604;2023-05-13T01:21:26;99950.75;;;11.68;95.44
16821;BME280;8527;49.740;6.604;2023-05-13T01:26:24;99943.94;;;11.66;95.50
16821;BME280;8527;49.740;6.604;2023-05-13T01:31:23;99948.13;;;11.52;96.49
16821;BME280;8527;49.740;6.604;2023-05-13T01:36:30;99946.34;;;11.44;97.83
16821;BME280;8527;49.740;6.604;2023-05-13T01:41:29;99954.81;;;11.39;95.41
16821;BME280;8527;49.740;6.604;2023-05-13T01:46:27;99952.16;;;11.39;95.66
16821;BME280;8527;49.740;6.604;2023-05-13T01:51:36;99941.38;;;11.24;95.39
16821;BME280;8527;49.740;6.604;2023-05-13T01:56:35;99949.53;;;11.15;95.77
16821;BME280;8527;49.740;6.604;2023-05-13T02:01:37;99950.50;;;11.22;96.67
16821;BME280;8527;49.740;6.604;2023-05-13T02:06:38;99959.81;;;11.09;97.03
16821;BME280;8527;49.740;6.604;2023-05-13T02:11:40;99952.34;;;11.05;95.95
16821;BME280;8527;49.740;6.604;2023-05-13T02:16:38;99948.38;;;10.84;95.27
16821;BME280;8527;49.740;6.604;2023-05-13T02:21:41;99949.84;;;10.87;95.01
16821;BME280;8527;49.740;6.604;2023-05-13T02:26:40;99950.03;;;10.93;97.00
16821;BME280;8527;49.740;6.604;2023-05-13T02:31:39;99964.63;;;10.81;97.01
16821;BME280;8527;49.740;6.604;2023-05-13T02:36:40;99954.19;;;10.88;97.04
16821;BME280;8527;49.740;6.604;2023-05-13T02:41:39;99948.00;;;10.62;96.72
16821;BME280;8527;49.740;6.604;2023-05-13T02:46:38;99952.81;;;10.50;99.14
16821;BME280;8527;49.740;6.604;2023-05-13T02:51:43;99955.47;;;10.59;96.73
16821;BME280;8527;49.740;6.604;2023-05-13T02:56:42;99951.31;;;10.48;97.18
16821;BME280;8527;49.740;6.604;2023-05-13T03:01:40;99947.91;;;10.29;96.36
16821;BME280;8527;49.740;6.604;2023-05-13T03:06:39;99944.78;;;10.34;96.12
16821;BME280;8527;49.740;6.604;2023-05-13T03:11:40;99944.09;;;10.32;97.41
16821;BME280;8527;49.740;6.604;2023-05-13T03:16:39;99947.91;;;10.29;97.00
16821;BME280;8527;49.740;6.604;2023-05-13T03:21:46;99948.22;;;10.26;96.94
16821;BME280;8527;49.740;6.604;2023-05-13T03:26:48;99956.19;;;10.18;96.09
16821;BME280;8527;49.740;6.604;2023-05-13T03:31:49;99959.94;;;10.07;96.72
16821;BME280;8527;49.740;6.604;2023-05-13T03:36:53;99960.59;;;10.01;96.84
16821;BME280;8527;49.740;6.604;2023-05-13T03:41:55;99968.38;;;10.02;97.35
16821;BME280;8527;49.740;6.604;2023-05-13T03:46:56;99963.88;;;9.94;98.04
16821;BME280;8527;49.740;6.604;2023-05-13T03:51:57;99964.06;;;10.01;96.72
16821;BME280;8527;49.740;6.604;2023-05-13T03:57:01;99959.50;;;9.85;96.56
16821;BME280;8527;49.740;6.604;2023-05-13T04:02:00;99966.72;;;9.66;95.70
16821;BME280;8527;49.740;6.604;2023-05-13T04:06:58;99965.25;;;9.72;95.84
16821;BME280;8527;49.740;6.604;2023-05-13T04:11:59;99968.50;;;9.66;96.45
16821;BME280;8527;49.740;6.604;2023-05-13T04:17:00;99972.53;;;9.70;96.92
16821;BME280;8527;49.740;6.604;2023-05-13T04:21:58;99970.88;;;9.69;97.29
16821;BME280;8527;49.740;6.604;2023-05-13T04:26:57;99967.53;;;9.67;97.28
16821;BME280;8527;49.740;6.604;2023-05-13T04:32:01;99970.03;;;9.68;96.78
16821;BME280;8527;49.740;6.604;2023-05-13T04:37:02;99969.25;;;9.76;96.73
16821;BME280;8527;49.740;6.604;2023-05-13T04:42:01;99978.03;;;9.77;96.45
16821;BME280;8527;49.740;6.604;2023-05-13T04:47:03;99979.28;;;9.99;97.98
16821;BME280;8527;49.740;6.604;2023-05-13T04:52:02;99987.31;;;10.16;98.24
16821;BME280;8527;49.740;6.604;2023-05-13T04:57:03;99994.81;;;10.28;97.99
16821;BME280;8527;49.740;6.604;2023-05-13T05:02:04;100000.56;;;10.50;97.32
16821;BME280;8527;49.740;6.604;2023-05-13T05:07:09;99992.63;;;10.83;98.89
16821;BME280;8527;49.740;6.604;2023-05-13T05:12:10;99996.47;;;11.06;99.78
16821;BME280;8527;49.740;6.604;2023-05-13T05:17:14;100004.44;;;11.31;99.39
16821;BME280;8527;49.740;6.604;2023-05-13T05:22:12;100007.94;;;11.06;99.28
16821;BME280;8527;49.740;6.604;2023-05-13T05:27:13;100012.56;;;11.21;98.54
16821;BME280;8527;49.740;6.604;2023-05-13T05:32:17;100013.03;;;11.74;96.53
16821;BME280;8527;49.740;6.604;2023-05-13T05:37:15;100011.88;;;11.60;95.01
16821;BME280;8527;49.740;6.604;2023-05-13T05:42:14;100013.91;;;11.33;96.24
16821;BME280;8527;49.740;6.604;2023-05-13T05:47:18;100000.44;;;11.60;95.83
16821;BME280;8527;49.740;6.604;2023-05-13T05:52:17;99997.94;;;12.55;93.62
16821;BME280;8527;49.740;6.604;2023-05-13T05:57:15;100001.88;;;13.52;88.11
16821;BME280;8527;49.740;6.604;2023-05-13T06:02:14;100003.09;;;14.10;83.21
16821;BME280;8527;49.740;6.604;2023-05-13T06:07:15;100005.19;;;13.54;83.68
16821;BME280;8527;49.740;6.604;2023-05-13T06:12:16;100016.50;;;13.71;83.48
16821;BME280;8527;49.740;6.604;2023-05-13T06:17:14;100014.75;;;14.24;80.39
16821;BME280;8527;49.740;6.604;2023-05-13T06:22:18;100014.69;;;14.17;82.59
16821;BME280;8527;49.740;6.604;2023-05-13T06:27:16;100011.38;;;15.10;78.13
16821;BME280;8527;49.740;6.604;2023-05-13T06:32:15;100013.44;;;14.86;78.25
16821;BME280;8527;49.740;6.604;2023-05-13T06:37:13;100018.25;;;15.19;77.21
16821;BME280;8527;49.740;6.604;2023-05-13T06:42:17;100010.19;;;14.91;76.52
16821;BME280;8527;49.740;6.604;2023-05-13T06:47:15;100022.16;;;15.45;74.74
16821;BME280;8527;49.740;6.604;2023-05-13T06:52:13;100013.84;;;15.33;74.91
16821;BME280;8527;49.740;6.604;2023-05-13T06:57:14;100013.50;;;16.00;73.00
16821;BME280;8527;49.740;6.604;2023-05-13T07:02:13;100012.91;;;16.67;70.92
16821;BME280;8527;49.740;6.604;2023-05-13T07:07:14;100003.06;;;16.88;72.09
16821;BME280;8527;49.740;6.604;2023-05-13T07:12:15;99993.88;;;17.18;69.51
16821;BME280;8527;49.740;6.604;2023-05-13T07:17:16;99994.59;;;16.71;70.65
16821;BME280;8527;49.740;6.604;2023-05-13T07:22:14;99994.63;;;16.91;70.05
16821;BME280;8527;49.740;6.604;2023-05-13T07:27:15;99996.53;;;17.04;69.21
16821;BME280;8527;49.740;6.604;2023-05-13T07:32:17;99996.25;;;16.72;70.76
16821;BME280;8527;49.740;6.604;2023-05-13T07:37:20;99992.81;;;17.52;67.93
16821;BME280;8527;49.740;6.604;2023-05-13T07:42:24;99994.28;;;17.21;67.55
16821;BME280;8527;49.740;6.604;2023-05-13T07:47:27;99996.44;;;16.57;70.31
16821;BME280;8527;49.740;6.604;2023-05-13T07:52:26;100004.63;;;16.42;69.69
16821;BME280;8527;49.740;6.604;2023-05-13T07:57:27;100005.25;;;16.51;69.96
16821;BME280;8527;49.740;6.604;2023-05-13T08:02:28;99998.78;;;17.00;68.98
16821;BME280;8527;49.740;6.604;2023-05-13T08:07:29;100003.84;;;16.68;69.05
16821;BME280;8527;49.740;6.604;2023-05-13T08:12:33;99982.47;;;17.69;66.31
16821;BME280;8527;49.740;6.604;2023-05-13T08:17:31;99986.03;;;18.22;64.91
16821;BME280;8527;49.740;6.604;2023-05-13T08:22:40;99983.00;;;19.15;62.10
16821;BME280;8527;49.740;6.604;2023-05-13T08:27:44;99979.28;;;18.84;61.71
16821;BME280;8527;49.740;6.604;2023-05-13T08:32:46;99980.78;;;18.73;61.92
16821;BME280;8527;49.740;6.604;2023-05-13T08:37:44;99977.78;;;19.46;59.61
16821;BME280;8527;49.740;6.604;2023-05-13T08:42:46;99977.84;;;19.58;59.34
16821;BME280;8527;49.740;6.604;2023-05-13T08:47:49;99969.19;;;19.56;58.69
16821;BME280;8527;49.740;6.604;2023-05-13T08:52:56;99972.88;;;19.80;57.60
16821;BME280;8527;49.740;6.604;2023-05-13T08:57:57;99975.31;;;20.19;54.92
16821;BME280;8527;49.740;6.604;2023-05-13T09:02:56;99976.59;;;20.35;56.01
16821;BME280;8527;49.740;6.604;2023-05-13T09:07:54;99969.47;;;20.83;52.79
16821;BME280;8527;49.740;6.604;2023-05-13T09:13:02;99978.69;;;20.14;53.22
16821;BME280;8527;49.740;6.604;2023-05-13T09:18:03;99977.81;;;20.82;51.87
16821;BME280;8527;49.740;6.604;2023-05-13T09:23:05;99977.44;;;20.17;53.27
16821;BME280;8527;49.740;6.604;2023-05-13T09:28:07;99957.34;;;20.62;51.35
16821;BME280;8527;49.740;6.604;2023-05-13T09:33:08;99947.72;;;21.20;50.93
16821;BME280;8527;49.740;6.604;2023-05-13T09:38:17;99938.56;;;21.10;50.47
16821;BME280;8527;49.740;6.604;2023-05-13T09:43:19;99951.47;;;21.07;49.18
16821;BME280;8527;49.740;6.604;2023-05-13T09:48:21;99951.63;;;20.70;49.06
16821;BME280;8527;49.740;6.604;2023-05-13T09:53:20;99959.44;;;21.26;49.45
16821;BME280;8527;49.740;6.604;2023-05-13T09:58:21;99937.75;;;20.97;50.33
16821;BME280;8527;49.740;6.604;2023-05-13T10:03:20;99951.81;;;21.47;50.49
16821;BME280;8527;49.740;6.604;2023-05-13T10:08:22;99951.19;;;20.85;52.18
16821;BME280;8527;49.740;6.604;2023-05-13T10:13:25;99944.53;;;21.71;50.55
16821;BME280;8527;49.740;6.604;2023-05-13T10:18:24;99942.06;;;21.58;51.93
16821;BME280;8527;49.740;6.604;2023-05-13T10:23:23;99936.91;;;22.38;49.67
16821;BME280;8527;49.740;6.604;2023-05-13T10:28:26;99933.03;;;21.52;51.03
16821;BME280;8527;49.740;6.604;2023-05-13T10:33:26;99922.03;;;21.06;51.38
16821;BME280;8527;49.740;6.604;2023-05-13T10:38:33;99915.78;;;22.35;49.61
16821;BME280;8527;49.740;6.604;2023-05-13T10:43:39;99914.38;;;21.39;51.27
16821;BME280;8527;49.740;6.604;2023-05-13T10:48:39;99917.59;;;21.00;51.00
16821;BME280;8527;49.740;6.604;2023-05-13T10:53:46;99918.94;;;20.36;51.07
16821;BME280;8527;49.740;6.604;2023-05-13T10:58:55;99905.72;;;20.89;50.34
16821;BME280;8527;49.740;6.604;2023-05-13T11:03:56;99897.41;;;22.20;47.71
16821;BME280;8527;49.740;6.604;2023-05-13T11:08:54;99903.63;;;21.27;48.27
16821;BME280;8527;49.740;6.604;2023-05-13T11:14:05;99902.56;;;21.04;48.03
16821;BME280;8527;49.740;6.604;2023-05-13T11:19:08;99891.56;;;21.82;47.49
16821;BME280;8527;49.740;6.604;2023-05-13T11:24:16;99892.69;;;20.98;46.55
16821;BME280;8527;49.740;6.604;2023-05-13T11:29:29;99879.66;;;21.42;46.98
16821;BME280;8527;49.740;6.604;2023-05-13T11:34:34;99875.50;;;21.75;46.51
16821;BME280;8527;49.740;6.604;2023-05-13T11:39:33;99867.19;;;21.53;45.87
16821;BME280;8527;49.740;6.604;2023-05-13T11:44:43;99859.53;;;22.03;45.06
16821;BME280;8527;49.740;6.604;2023-05-13T11:49:47;99856.59;;;22.51;42.87
16821;BME280;8527;49.740;6.604;2023-05-13T11:54:48;99863.44;;;21.95;43.97
16821;BME280;8527;49.740;6.604;2023-05-13T11:59:55;99860.44;;;22.09;43.54
16821;BME280;8527;49.740;6.604;2023-05-13T12:04:54;99866.59;;;21.51;43.82
16821;BME280;8527;49.740;6.604;2023-05-13T12:09:56;99871.84;;;20.93;45.09
16821;BME280;8527;49.740;6.604;2023-05-13T12:15:01;99897.88;;;20.14;51.13
16821;BME280;8527;49.740;6.604;2023-05-13T12:20:09;99915.06;;;18.94;51.17
16821;BME280;8527;49.740;6.604;2023-05-13T12:25:35;99895.53;;;18.30;55.26
16821;BME280;8527;49.740;6.604;2023-05-13T12:30:37;99900.19;;;18.98;56.86
16821;BME280;8527;49.740;6.604;2023-05-13T12:35:36;99889.44;;;19.43;54.70
16821;BME280;8527;49.740;6.604;2023-05-13T12:40:34;99894.88;;;20.22;56.17
16821;BME280;8527;49.740;6.604;2023-05-13T12:45:36;99878.53;;;20.36;45.97
16821;BME280;8527;49.740;6.604;2023-05-13T12:50:36;99872.94;;;20.49;45.49
16821;BME280;8527;49.740;6.604;2023-05-13T12:55:41;99865.09;;;20.60;44.68
16821;BME280;8527;49.740;6.604;2023-05-13T13:00:42;99877.38;;;20.44;45.90
16821;BME280;8527;49.740;6.604;2023-05-13T13:05:41;99876.09;;;20.58;45.36
16821;BME280;8527;49.740;6.604;2023-05-13T13:10:42;99881.41;;;20.77;44.71
16821;BME280;8527;49.740;6.604;2023-05-13T13:15:43;99880.84;;;20.75;45.67
16821;BME280;8527;49.740;6.604;2023-05-13T13:20:42;99882.59;;;20.81;45.18
16821;BME280;8527;49.740;6.604;2023-05-13T13:25:40;99888.34;;;20.97;44.28
16821;BME280;8527;49.740;6.604;2023-05-13T13:30:39;99881.78;;;20.92;45.44
16821;BME280;8527;49.740;6.604;2023-05-13T13:35:44;99887.63;;;20.77;43.38
16821;BME280;8527;49.740;6.604;2023-05-13T13:40:43;99891.09;;;20.42;43.02
16821;BME280;8527;49.740;6.604;2023-05-13T13:45:41;99913.72;;;20.10;43.86
16821;BME280;8527;49.740;6.604;2023-05-13T13:50:43;99913.59;;;19.24;50.33
16821;BME280;8527;49.740;6.604;2023-05-13T13:55:47;99889.47;;;19.17;64.88
16821;BME280;8527;49.740;6.604;2023-05-13T14:00:47;99887.13;;;18.77;67.52
16821;BME280;8527;49.740;6.604;2023-05-13T14:05:47;99889.56;;;18.53;69.10
16821;BME280;8527;49.740;6.604;2023-05-13T14:10:49;99877.19;;;19.03;70.01
16821;BME280;8527;49.740;6.604;2023-05-13T14:15:47;99879.47;;;19.24;67.76
16821;BME280;8527;49.740;6.604;2023-05-13T14:20:49;99896.78;;;19.10;69.13
16821;BME280;8527;49.740;6.604;2023-05-13T14:25:50;99908.72;;;18.89;73.13
16821;BME280;8527;49.740;6.604;2023-05-13T14:30:48;99932.91;;;17.79;70.89
16821;BME280;8527;49.740;6.604;2023-05-13T14:35:46;99942.47;;;16.94;78.81
16821;BME280;8527;49.740;6.604;2023-05-13T14:40:45;99937.16;;;17.07;80.36
16821;BME280;8527;49.740;6.604;2023-05-13T14:45:47;99929.28;;;17.46;82.14
16821;BME280;8527;49.740;6.604;2023-05-13T14:50:46;99921.25;;;17.26;83.39
16821;BME280;8527;49.740;6.604;2023-05-13T14:55:47;99902.66;;;17.38;82.57
16821;BME280;8527;49.740;6.604;2023-05-13T15:00:48;99891.75;;;17.39;79.13
16821;BME280;8527;49.740;6.604;2023-05-13T15:05:47;99895.41;;;17.58;80.86
16821;BME280;8527;49.740;6.604;2023-05-13T15:10:46;99892.94;;;17.50;81.00
16821;BME280;8527;49.740;6.604;2023-05-13T15:15:49;99885.00;;;17.76;81.12
16821;BME280;8527;49.740;6.604;2023-05-13T15:20:48;99894.47;;;17.85;76.13
16821;BME280;8527;49.740;6.604;2023-05-13T15:25:49;99896.84;;;18.13;75.73
16821;BME280;8527;49.740;6.604;2023-05-13T15:30:50;99899.41;;;17.88;66.27
16821;BME280;8527;49.740;6.604;2023-05-13T15:35:49;99915.41;;;18.22;70.38
16821;BME280;8527;49.740;6.604;2023-05-13T15:40:51;99897.31;;;17.97;72.59
16821;BME280;8527;49.740;6.604;2023-05-13T15:45:52;99893.94;;;17.63;71.00
16821;BME280;8527;49.740;6.604;2023-05-13T15:50:53;99882.16;;;17.64;69.56
16821;BME280;8527;49.740;6.604;2023-05-13T15:55:55;99887.41;;;17.45;71.98
16821;BME280;8527;49.740;6.604;2023-05-13T16:00:57;99934.63;;;17.46;71.96
16821;BME280;8527;49.740;6.604;2023-05-13T16:05:55;99983.84;;;15.67;76.30
16821;BME280;8527;49.740;6.604;2023-05-13T16:10:54;99981.91;;;15.25;81.14
16821;BME280;8527;49.740;6.604;2023-05-13T16:15:52;99989.13;;;14.81;86.87
16821;BME280;8527;49.740;6.604;2023-05-13T16:20:53;99996.28;;;14.59;83.69
16821;BME280;8527;49.740;6.604;2023-05-13T16:25:58;100011.28;;;14.60;82.58
16821;BME280;8527;49.740;6.604;2023-05-13T16:30:56;100009.72;;;14.29;81.82
16821;BME280;8527;49.740;6.604;2023-05-13T16:35:57;100007.03;;;14.66;81.06
16821;BME280;8527;49.740;6.604;2023-05-13T16:40:55;100009.31;;;14.84;80.10
16821;BME280;8527;49.740;6.604;2023-05-13T16:45:55;99999.56;;;14.98;78.82
16821;BME280;8527;49.740;6.604;2023-05-13T16:50:53;99972.97;;;15.11;79.49
16821;BME280;8527;49.740;6.604;2023-05-13T16:55:54;99955.53;;;15.15;82.90
16821;BME280;8527;49.740;6.604;2023-05-13T17:00:53;99939.81;;;15.34;80.29
16821;BME280;8527;49.740;6.604;2023-05-13T17:05:54;99917.63;;;15.33;82.14
16821;BME280;8527;49.740;6.604;2023-05-13T17:10:55;99910.66;;;15.39;83.76
16821;BME280;8527;49.740;6.604;2023-05-13T17:15:54;99901.16;;;15.30;84.29
16821;BME280;8527;49.740;6.604;2023-05-13T17:20:52;99914.91;;;15.27;84.62
16821;BME280;8527;49.740;6.604;2023-05-13T17:25:51;99923.19;;;15.39;84.60
16821;BME280;8527;49.740;6.604;2023-05-13T17:30:58;99920.38;;;15.47;81.97
16821;BME280;8527;49.740;6.604;2023-05-13T17:35:58;99925.69;;;15.40;83.01
16821;BME280;8527;49.740;6.604;2023-05-13T17:41:00;99929.34;;;15.04;83.35
16821;BME280;8527;49.740;6.604;2023-05-13T17:46:01;99921.19;;;14.69;83.39
16821;BME280;8527;49.740;6.604;2023-05-13T17:51:00;99916.16;;;15.02;82.20
16821;BME280;8527;49.740;6.604;2023-05-13T17:55:58;99926.56;;;14.90;81.11
16821;BME280;8527;49.740;6.604;2023-05-13T18:01:07;99924.88;;;15.11;81.64
16821;BME280;8527;49.740;6.604;2023-05-13T18:06:06;99925.53;;;14.91;83.23
16821;BME280;8527;49.740;6.604;2023-05-13T18:11:04;99934.00;;;14.73;82.26
16821;BME280;8527;49.740;6.604;2023-05-13T18:16:04;99931.25;;;14.67;80.80
16821;BME280;8527;49.740;6.604;2023-05-13T18:21:06;99938.47;;;14.29;82.27
16821;BME280;8527;49.740;6.604;2023-05-13T18:26:05;99932.31;;;14.29;83.12
16821;BME280;8527;49.740;6.604;2023-05-13T18:31:03;99927.19;;;14.49;83.84
16821;BME280;8527;49.740;6.604;2023-05-13T18:36:01;99922.88;;;14.48;82.42
16821;BME280;8527;49.740;6.604;2023-05-13T18:41:03;99923.22;;;14.45;83.74
16821;BME280;8527;49.740;6.604;2023-05-13T18:46:04;99930.66;;;14.49;84.68
16821;BME280;8527;49.740;6.604;2023-05-13T18:51:03;99947.47;;;14.28;84.06
16821;BME280;8527;49.740;6.604;2023-05-13T18:56:04;99947.88;;;14.25;84.95
16821;BME280;8527;49.740;6.604;2023-05-13T19:01:03;99952.41;;;14.10;85.35
16821;BME280;8527;49.740;6.604;2023-05-13T19:06:04;99959.19;;;14.12;85.70
16821;BME280;8527;49.740;6.604;2023-05-13T19:11:06;99962.72;;;14.13;85.43
16821;BME280;8527;49.740;6.604;2023-05-13T19:16:15;99983.31;;;13.74;84.95
16821;BME280;8527;49.740;6.604;2023-05-13T19:21:13;99995.38;;;13.85;86.12
16821;BME280;8527;49.740;6.604;2023-05-13T19:26:14;99987.81;;;13.58;87.28
16821;BME280;8527;49.740;6.604;2023-05-13T19:31:13;100002.16;;;13.57;84.97
16821;BME280;8527;49.740;6.604;2023-05-13T19:36:12;100014.22;;;13.53;85.59
16821;BME280;8527;49.740;6.604;2023-05-13T19:41:14;100017.28;;;13.42;85.51
16821;BME280;8527;49.740;6.604;2023-05-13T19:46:13;100010.41;;;13.24;86.84
16821;BME280;8527;49.740;6.604;2023-05-13T19:51:11;100011.53;;;13.15;85.66
16821;BME280;8527;49.740;6.604;2023-05-13T19:56:10;100010.28;;;13.02;84.41
16821;BME280;8527;49.740;6.604;2023-05-13T20:01:11;100013.75;;;13.03;86.93
16821;BME280;8527;49.740;6.604;2023-05-13T20:06:11;100020.88;;;12.87;86.13
16821;BME280;8527;49.740;6.604;2023-05-13T20:11:10;100015.16;;;12.67;87.53
16821;BME280;8527;49.740;6.604;2023-05-13T20:16:11;100010.50;;;12.69;86.56
16821;BME280;8527;49.740;6.604;2023-05-13T20:21:11;100012.69;;;12.65;87.99
16821;BME280;8527;49.740;6.604;2023-05-13T20:26:10;100025.97;;;12.65;87.45
16821;BME280;8527;49.740;6.604;2023-05-13T20:31:14;100030.66;;;12.63;88.75
16821;BME280;8527;49.740;6.604;2023-05-13T20:36:13;100020.16;;;12.30;90.67
16821;BME280;8527;49.740;6.604;2023-05-13T20:41:14;100009.91;;;12.19;87.68
16821;BME280;8527;49.740;6.604;2023-05-13T20:46:15;100009.75;;;12.20;88.39
16821;BME280;8527;49.740;6.604;2023-05-13T20:51:14;100000.78;;;12.13;89.59
16821;BME280;8527;49.740;6.604;2023-05-13T20:56:12;99997.81;;;12.16;91.30
16821;BME280;8527;49.740;6.604;2023-05-13T21:01:11;99987.19;;;12.00;90.78
16821;BME280;8527;49.740;6.604;2023-05-13T21:06:12;99990.84;;;11.99;90.88
16821;BME280;8527;49.740;6.604;2023-05-13T21:11:13;99992.50;;;12.00;89.25
16821;BME280;8527;49.740;6.604;2023-05-13T21:16:12;99989.91;;;11.83;91.58
16821;BME280;8527;49.740;6.604;2023-05-13T21:21:16;99996.53;;;11.87;91.21
16821;BME280;8527;49.740;6.604;2023-05-13T21:26:18;99994.25;;;11.76;90.10
16821;BME280;8527;49.740;6.604;2023-05-13T21:31:17;99988.09;;;11.67;91.95
16821;BME280;8527;49.740;6.604;2023-05-13T21:36:18;99987.94;;;11.77;91.55
16821;BME280;8527;49.740;6.604;2023-05-13T21:41:19;99984.13;;;11.71;90.42
16821;BME280;8527;49.740;6.604;2023-05-13T21:46:19;99983.44;;;11.69;93.94
16821;BME280;8527;49.740;6.604;2023-05-13T21:51:20;99996.41;;;11.72;93.13
16821;BME280;8527;49.740;6.604;2023-05-13T21:56:18;99983.03;;;11.40;93.86
16821;BME280;8527;49.740;6.604;2023-05-13T22:01:17;99992.47;;;11.51;93.97
16821;BME280;8527;49.740;6.604;2023-05-13T22:06:15;99992.97;;;11.47;91.94
16821;BME280;8527;49.740;6.604;2023-05-13T22:11:16;99992.31;;;11.36;93.07
16821;BME280;8527;49.740;6.604;2023-05-13T22:16:15;99992.50;;;11.35;92.85
16821;BME280;8527;49.740;6.604;2023-05-13T22:21:16;99976.75;;;11.25;91.68
16821;BME280;8527;49.740;6.604;2023-05-13T22:26:17;99981.19;;;11.16;92.96
16821;BME280;8527;49.740;6.604;2023-05-13T22:31:18;99980.53;;;11.31;92.88
16821;BME280;8527;49.740;6.604;2023-05-13T22:36:16;99975.41;;;11.21;92.61
16821;BME280;8527;49.740;6.604;2023-05-13T22:41:27;99977.56;;;11.09;90.58
16821;BME280;8527;49.740;6.604;2023-05-13T22:46:25;99980.53;;;11.14;92.52
16821;BME280;8527;49.740;6.604;2023-05-13T22:51:26;99977.72;;;10.99;92.12
16821;BME280;8527;49.740;6.604;2023-05-13T22:56:31;99969.25;;;10.87;92.73
16821;BME280;8527;49.740;6.604;2023-05-13T23:01:30;99968.59;;;10.85;93.92
16821;BME280;8527;49.740;6.604;2023-05-13T23:06:28;99966.78;;;10.77;93.82
16821;BME280;8527;49.740;6.604;2023-05-13T23:11:29;99966.75;;;10.69;94.33
16821;BME280;8527;49.740;6.604;2023-05-13T23:16:28;99971.72;;;10.72;93.84
16821;BME280;8527;49.740;6.604;2023-05-13T23:21:26;99973.41;;;10.65;94.14
16821;BME280;8527;49.740;6.604;2023-05-13T23:26:25;99960.44;;;10.70;93.98
16821;BME280;8527;49.740;6.604;2023-05-13T23:31:26;99961.28;;;10.62;93.79
16821;BME280;8527;49.740;6.604;2023-05-13T23:36:25;99957.13;;;10.51;93.72
16821;BME280;8527;49.740;6.604;2023-05-13T23:41:27;99963.75;;;10.55;95.20
16821;BME280;8527;49.740;6.604;2023-05-13T23:46:34;99960.78;;;10.50;95.62
16821;BME280;8527;49.740;6.604;2023-05-13T23:51:32;99956.78;;;10.54;95.83
16821;BME280;8527;49.740;6.604;2023-05-13T23:56:34;99943.28;;;10.39;100.00
